Time;durP1;ratioP1;P1;durP2;ratioP2;P2;SDS_P1;SDS_P2;PMS_P1;PMS_P2;Temp;Humidity;BMP_temperature;BMP_pressure;BME280_temperature;BME280_humidity;BME280_pressure;Samples;Min_cycle;Max_cycle;Signal;HPM_P1;HPM_P2
2023/12/03 00:01:00;;;;;;;25.93;6.33;;;;;;;13.33;70.05;94268.19;4976782;28;20231;-78
2023/12/03 00:03:26;;;;;;;20.63;5.90;;;;;;;13.13;69.86;94267.78;4975378;28;20701;-79
2023/12/03 00:05:51;;;;;;;30.87;8.37;;;;;;;13.16;69.27;94262.84;4991516;28;20346;-78
2023/12/03 00:08:17;;;;;;;20.67;5.37;;;;;;;13.23;68.60;94268.00;4976305;28;20232;-78
2023/12/03 00:10:43;;;;;;;24.30;6.10;;;;;;;13.25;68.82;94274.63;4976720;28;20314;-78
2023/12/03 00:13:08;;;;;;;29.60;6.67;;;;;;;13.24;67.75;94275.63;4977874;28;20232;-77
2023/12/03 00:15:34;;;;;;;21.43;4.53;;;;;;;13.15;69.53;94274.41;4981478;28;20236;-78
2023/12/03 00:17:59;;;;;;;23.00;5.33;;;;;;;13.05;71.05;94283.84;4976819;28;20262;-77
2023/12/03 00:20:25;;;;;;;22.00;3.60;;;;;;;13.08;68.28;94276.34;4977662;28;20331;-77
2023/12/03 00:22:50;;;;;;;23.73;5.77;;;;;;;12.97;72.29;94287.63;4977208;28;20290;-77
2023/12/03 00:25:16;;;;;;;20.90;4.03;;;;;;;13.24;68.68;94282.72;4978371;28;20236;-77
2023/12/03 00:27:42;;;;;;;23.83;4.20;;;;;;;12.99;70.92;94292.66;4965406;28;20683;-77
2023/12/03 00:30:08;;;;;;;25.27;4.13;;;;;;;12.92;70.24;94290.13;4980918;28;20741;-78
2023/12/03 00:32:33;;;;;;;19.53;4.10;;;;;;;13.14;69.41;94293.00;4981074;28;20228;-77
2023/12/03 00:34:59;;;;;;;20.93;3.73;;;;;;;13.09;68.86;94291.06;4973543;28;20310;-78
2023/12/03 00:37:24;;;;;;;23.37;3.77;;;;;;;12.94;71.27;94282.03;4975608;28;20239;-77
2023/12/03 00:39:50;;;;;;;19.73;3.60;;;;;;;13.05;69.06;94282.03;4981357;28;20264;-77
2023/12/03 00:42:15;;;;;;;19.20;4.43;;;;;;;13.09;70.04;94291.06;4973289;28;20840;-77
2023/12/03 00:44:41;;;;;;;25.53;6.83;;;;;;;13.05;71.44;94292.53;4976517;28;20701;-77
2023/12/03 00:47:08;;;;;;;20.63;4.07;;;;;;;13.38;68.07;94300.63;4974492;28;20709;-77
2023/12/03 00:49:33;;;;;;;18.57;4.53;;;;;;;13.62;66.30;94305.81;4992610;28;20228;-76
2023/12/03 00:51:59;;;;;;;22.73;4.10;;;;;;;13.56;66.71;94312.03;4976461;28;20259;-77
2023/12/03 00:54:24;;;;;;;25.97;4.17;;;;;;;13.54;67.17;94314.09;4976307;28;20918;-77
2023/12/03 00:56:50;;;;;;;21.40;4.27;;;;;;;14.03;65.39;94309.00;4993247;28;20888;-78
2023/12/03 00:59:15;;;;;;;19.97;3.47;;;;;;;13.89;65.08;94304.25;4973949;28;20319;-77
2023/12/03 01:01:44;;;;;;;19.97;3.03;;;;;;;13.90;66.43;94303.25;4977890;28;20370;-76
2023/12/03 01:04:09;;;;;;;20.17;3.63;;;;;;;13.88;65.83;94316.59;4981897;28;21025;-78
2023/12/03 01:06:35;;;;;;;21.27;3.40;;;;;;;13.98;64.71;94316.81;4965112;28;20255;-78
2023/12/03 01:09:00;;;;;;;16.37;3.07;;;;;;;14.11;63.80;94313.88;4973250;28;20667;-77
2023/12/03 01:11:26;;;;;;;20.23;3.03;;;;;;;14.04;65.24;94318.47;4991828;28;20275;-78
2023/12/03 01:13:52;;;;;;;19.53;3.40;;;;;;;13.91;66.15;94317.97;4976288;28;20235;-78
2023/12/03 01:16:17;;;;;;;24.73;3.80;;;;;;;13.79;66.96;94323.28;4962819;28;20230;-76
2023/12/03 01:18:43;;;;;;;20.03;3.40;;;;;;;14.01;64.17;94315.53;4981308;28;20705;-77
2023/12/03 01:21:09;;;;;;;24.43;3.50;;;;;;;14.19;63.56;94316.13;4961955;28;20778;-77
2023/12/03 01:23:34;;;;;;;27.43;3.47;;;;;;;14.26;64.38;94310.72;4991177;28;21181;-77
2023/12/03 01:26:00;;;;;;;23.43;3.50;;;;;;;14.48;62.61;94318.75;4991271;28;20677;-77
2023/12/03 01:28:25;;;;;;;16.40;2.87;;;;;;;14.53;63.19;94319.66;4974377;28;20314;-77
2023/12/03 01:30:51;;;;;;;18.87;3.13;;;;;;;14.65;61.87;94325.66;4976369;28;20228;-77
2023/12/03 01:33:17;;;;;;;18.07;2.83;;;;;;;14.70;62.00;94319.66;4962638;28;20648;-76
2023/12/03 01:35:42;;;;;;;19.30;3.00;;;;;;;14.73;62.75;94312.09;4957148;28;20285;-77
2023/12/03 01:38:08;;;;;;;19.07;3.03;;;;;;;14.76;62.14;94308.16;4977029;28;20228;-76
2023/12/03 01:40:34;;;;;;;15.10;2.70;;;;;;;14.78;61.96;94317.41;4975640;28;20717;-77
2023/12/03 01:42:59;;;;;;;17.40;2.77;;;;;;;14.84;62.64;94316.47;4970969;28;20232;-77
2023/12/03 01:45:25;;;;;;;20.63;2.83;;;;;;;14.95;61.33;94317.41;4964692;28;20227;-77
2023/12/03 01:47:50;;;;;;;19.47;3.30;;;;;;;14.95;61.94;94317.41;4975269;28;20269;-77
2023/12/03 01:50:16;;;;;;;19.10;3.00;;;;;;;14.95;61.85;94309.50;4974546;28;20677;-77
2023/12/03 01:52:42;;;;;;;17.80;3.00;;;;;;;14.93;62.13;94311.59;4991881;28;20310;-76
2023/12/03 01:55:08;;;;;;;17.87;2.97;;;;;;;14.99;61.31;94312.47;4971962;28;20671;-77
2023/12/03 01:57:34;;;;;;;15.70;2.80;;;;;;;14.97;61.39;94309.28;4952478;28;20315;-77
2023/12/03 01:59:59;;;;;;;18.60;2.97;;;;;;;15.11;61.97;94318.44;4973797;28;20235;-78
2023/12/03 02:02:26;;;;;;;17.63;2.80;;;;;;;15.10;61.36;94315.00;4964013;28;20251;-77
2023/12/03 02:04:52;;;;;;;22.33;3.00;;;;;;;15.18;59.68;94311.16;4980256;28;20246;-77
2023/12/03 02:07:17;;;;;;;19.00;3.10;;;;;;;15.20;60.00;94309.88;4976886;28;20267;-76
2023/12/03 02:09:43;;;;;;;22.77;2.87;;;;;;;15.30;60.35;94310.03;4974407;28;20316;-78
2023/12/03 02:12:08;;;;;;;20.83;3.13;;;;;;;15.32;59.80;94315.84;4962097;28;20272;-77
2023/12/03 02:14:34;;;;;;;19.80;2.80;;;;;;;15.31;59.51;94308.16;4994173;28;20251;-77
2023/12/03 02:16:59;;;;;;;27.20;3.03;;;;;;;15.19;60.49;94304.88;4991053;28;20792;-77
2023/12/03 02:19:25;;;;;;;21.13;2.80;;;;;;;15.18;60.38;94300.63;4960122;28;20667;-76
2023/12/03 02:21:51;;;;;;;22.87;2.60;;;;;;;15.13;61.10;94298.72;4963628;28;20246;-76
2023/12/03 02:24:16;;;;;;;20.13;3.03;;;;;;;15.24;59.18;94289.91;4978998;28;20235;-77
2023/12/03 02:26:42;;;;;;;19.70;3.20;;;;;;;15.21;59.97;94292.25;4974985;28;20227;-78
2023/12/03 02:29:07;;;;;;;19.53;2.90;;;;;;;15.16;60.72;94308.78;4974542;28;20232;-77
2023/12/03 02:31:33;;;;;;;17.33;3.20;;;;;;;15.23;59.95;94303.34;4973633;28;20336;-77
2023/12/03 02:34:08;;;;;;;20.67;2.90;;;;;;;15.26;60.00;94308.13;4981615;28;20235;-77
2023/12/03 02:36:34;;;;;;;22.07;3.20;;;;;;;15.14;60.78;94302.16;4989484;28;20231;-77
2023/12/03 02:38:59;;;;;;;21.30;3.10;;;;;;;15.25;60.73;94307.31;4990534;28;20227;-77
2023/12/03 02:41:25;;;;;;;22.10;3.00;;;;;;;15.22;60.82;94307.81;4957771;28;20598;-76
2023/12/03 02:43:51;;;;;;;18.97;2.70;;;;;;;15.16;60.91;94313.25;4975431;28;20646;-77
2023/12/03 02:46:16;;;;;;;20.90;2.77;;;;;;;15.07;61.58;94323.38;4971250;28;20289;-77
2023/12/03 02:48:42;;;;;;;17.67;2.97;;;;;;;15.00;61.11;94319.34;4975772;28;20242;-77
2023/12/03 02:51:08;;;;;;;24.93;3.80;;;;;;;14.92;62.41;94328.44;4975643;28;20326;-78
2023/12/03 02:53:36;;;;;;;26.40;3.67;;;;;;;14.77;64.00;94336.09;4993373;28;20996;-77
2023/12/03 02:56:02;;;;;;;20.20;3.50;;;;;;;14.65;65.03;94338.03;4972904;28;20355;-77
2023/12/03 02:58:28;;;;;;;26.90;3.97;;;;;;;14.19;67.83;94331.13;4992541;28;20318;-77
2023/12/03 03:00:53;;;;;;;23.17;3.80;;;;;;;14.15;67.76;94330.81;4977490;28;20263;-77
2023/12/03 03:03:19;;;;;;;22.67;3.80;;;;;;;14.00;69.87;94335.78;4975931;28;20673;-78
2023/12/03 03:05:44;;;;;;;21.10;4.00;;;;;;;14.09;68.89;94328.34;4968555;28;20298;-77
2023/12/03 03:08:10;;;;;;;20.40;3.83;;;;;;;14.06;69.57;94334.88;4957778;28;21131;-77
2023/12/03 03:10:36;;;;;;;23.53;3.90;;;;;;;13.97;70.36;94336.25;4944399;28;20232;-77
2023/12/03 03:13:02;;;;;;;23.37;3.93;;;;;;;13.90;71.29;94332.94;4948500;28;20331;-77
2023/12/03 03:15:27;;;;;;;21.77;3.37;;;;;;;13.83;71.91;94349.91;4959450;28;20311;-78
2023/12/03 03:17:53;;;;;;;26.80;3.77;;;;;;;13.78;72.70;94352.47;4964055;28;20228;-77
2023/12/03 03:20:21;;;;;;;17.13;3.93;;;;;;;13.73;72.87;94353.13;4976338;28;20712;-77
2023/12/03 03:22:47;;;;;;;23.80;4.20;;;;;;;13.68;72.56;94341.72;4976805;28;20230;-77
2023/12/03 03:25:13;;;;;;;23.47;4.30;;;;;;;13.70;72.63;94353.63;4993624;28;20269;-77
2023/12/03 03:27:39;;;;;;;26.57;3.80;;;;;;;13.66;73.47;94354.31;4973961;28;20770;-76
2023/12/03 03:30:06;;;;;;;21.33;3.70;;;;;;;13.57;73.00;94356.47;4986740;28;20328;-76
2023/12/03 03:32:32;;;;;;;23.67;3.73;;;;;;;13.47;73.95;94359.69;4992947;28;20242;-77
2023/12/03 03:34:58;;;;;;;22.30;3.47;;;;;;;13.48;75.72;94371.00;4977203;28;20702;-77
2023/12/03 03:37:23;;;;;;;26.27;3.90;;;;;;;13.56;74.02;94380.38;4975245;28;20236;-75
2023/12/03 03:39:49;;;;;;;20.13;3.53;;;;;;;13.43;75.31;94384.06;4992649;28;20310;-77
2023/12/03 03:42:14;;;;;;;20.37;3.67;;;;;;;13.27;76.81;94388.19;4978726;28;20322;-76
2023/12/03 03:44:40;;;;;;;24.07;4.20;;;;;;;13.22;77.85;94389.88;4976014;28;20262;-78
2023/12/03 03:47:05;;;;;;;24.27;4.43;;;;;;;13.27;76.59;94388.19;4992520;28;20267;-78
2023/12/03 03:49:31;;;;;;;26.53;4.80;;;;;;;13.43;74.73;94403.25;4993425;28;20240;-77
2023/12/03 03:51:56;;;;;;;24.13;4.27;;;;;;;13.43;76.67;94391.94;4983225;28;20270;-77
2023/12/03 03:54:22;;;;;;;25.53;4.83;;;;;;;13.42;76.76;94406.13;4958758;28;20727;-77
2023/12/03 03:56:48;;;;;;;24.80;4.17;;;;;;;13.51;74.96;94404.75;4973408;28;20315;-76
2023/12/03 03:59:14;;;;;;;20.20;3.80;;;;;;;13.73;72.31;94416.25;4993343;28;20325;-76
2023/12/03 04:01:43;;;;;;;25.30;4.03;;;;;;;13.69;73.36;94423.00;4971743;28;20232;-77
2023/12/03 04:04:09;;;;;;;19.20;3.60;;;;;;;13.78;71.78;94420.84;4975321;28;20271;-77
2023/12/03 04:06:42;;;;;;;23.00;3.20;;;;;;;13.87;71.00;94424.72;4991082;28;20231;-77
2023/12/03 04:09:08;;;;;;;18.23;3.60;;;;;;;13.94;70.78;94431.44;4941640;28;20266;-77
2023/12/03 04:11:44;;;;;;;20.73;3.70;;;;;;;14.00;70.37;94425.25;4962930;28;20224;-77
2023/12/03 04:14:15;;;;;;;18.60;3.30;;;;;;;14.05;68.58;94421.91;4976840;28;20227;-77
2023/12/03 04:16:40;;;;;;;22.90;3.40;;;;;;;14.09;68.28;94430.97;4956552;28;20234;-76
2023/12/03 04:19:06;;;;;;;21.47;3.40;;;;;;;13.99;69.26;94436.00;4963855;28;20236;-77
2023/12/03 04:21:32;;;;;;;26.73;3.40;;;;;;;14.04;69.45;94439.53;4982277;28;20232;-77
2023/12/03 04:23:58;;;;;;;17.80;3.40;;;;;;;14.03;68.76;94447.66;4978275;28;20259;-77
2023/12/03 04:26:24;;;;;;;24.07;3.50;;;;;;;14.00;69.30;94443.66;4974233;28;20739;-77
2023/12/03 04:28:49;;;;;;;17.60;3.00;;;;;;;14.01;68.64;94447.09;4972840;28;20235;-78
2023/12/03 04:31:20;;;;;;;23.17;3.27;;;;;;;13.99;67.25;94449.97;4973900;28;20240;-77
2023/12/03 04:33:46;;;;;;;19.30;3.40;;;;;;;13.97;67.80;94461.75;4981287;28;20264;-78
2023/12/03 04:36:14;;;;;;;23.87;3.23;;;;;;;13.94;67.80;94473.53;4976189;28;20772;-77
2023/12/03 04:38:40;;;;;;;19.33;2.90;;;;;;;13.92;68.96;94472.16;4974554;28;20228;-77
2023/12/03 04:41:06;;;;;;;16.40;3.17;;;;;;;13.90;68.59;94468.97;4980451;28;20236;-77
2023/12/03 04:43:31;;;;;;;16.07;3.00;;;;;;;13.84;69.18;94473.31;4960846;28;20251;-76
2023/12/03 04:45:57;;;;;;;15.47;2.73;;;;;;;13.81;70.12;94478.22;4979883;28;20334;-77
2023/12/03 04:48:22;;;;;;;19.37;3.00;;;;;;;13.75;72.05;94482.59;4991557;28;20232;-76
2023/12/03 04:50:48;;;;;;;20.33;2.70;;;;;;;13.68;73.46;94492.44;4965706;28;20235;-77
2023/12/03 04:53:13;;;;;;;15.93;2.70;;;;;;;13.54;76.07;94482.38;4976346;28;20235;-77
2023/12/03 04:55:39;;;;;;;17.80;2.80;;;;;;;13.42;78.97;94514.69;4974731;28;20282;-76
2023/12/03 04:58:05;;;;;;;15.17;2.80;;;;;;;13.43;79.85;94516.28;4981760;28;20240;-77
2023/12/03 05:00:30;;;;;;;14.17;2.47;;;;;;;13.33;81.86;94513.41;4973807;28;20355;-77
2023/12/03 05:02:56;;;;;;;13.40;2.40;;;;;;;13.30;81.97;94519.13;4972414;28;20242;-77
2023/12/03 05:05:22;;;;;;;13.00;3.00;;;;;;;13.22;83.65;94516.03;4972778;28;20276;-77
2023/12/03 05:07:47;;;;;;;17.97;2.77;;;;;;;13.23;84.52;94530.78;4958158;28;20242;-76
2023/12/03 05:10:13;;;;;;;14.57;2.70;;;;;;;13.20;84.25;94541.72;4989071;28;20745;-77
2023/12/03 05:12:38;;;;;;;15.63;2.70;;;;;;;13.18;84.54;94546.41;4985900;28;20319;-76
2023/12/03 05:15:04;;;;;;;14.10;2.70;;;;;;;13.19;84.71;94550.63;4959008;28;20235;-77
2023/12/03 05:17:30;;;;;;;13.53;2.83;;;;;;;13.13;84.90;94568.13;4974846;28;21124;-77
2023/12/03 05:19:55;;;;;;;15.83;2.93;;;;;;;13.07;84.34;94576.88;4971168;28;20231;-76
2023/12/03 05:22:21;;;;;;;15.77;3.10;;;;;;;13.08;84.34;94567.16;4991622;28;20384;-76
2023/12/03 05:24:48;;;;;;;16.50;2.60;;;;;;;13.14;83.96;94569.69;4958409;28;20623;-77
2023/12/03 05:27:14;;;;;;;14.30;3.13;;;;;;;13.07;84.14;94570.81;4987487;28;20232;-76
2023/12/03 05:29:46;;;;;;;16.53;2.90;;;;;;;13.03;83.51;94572.25;4981012;28;20266;-76
2023/12/03 05:32:12;;;;;;;14.13;2.93;;;;;;;12.98;83.75;94562.41;4974444;28;20263;-77
2023/12/03 05:34:38;;;;;;;19.13;3.20;;;;;;;12.77;85.90;94574.22;4973244;28;20242;-77
2023/12/03 05:37:04;;;;;;;18.93;3.17;;;;;;;12.82;84.83;94576.94;4973400;28;20261;-76
2023/12/03 05:39:30;;;;;;;19.00;4.27;;;;;;;12.80;85.59;94575.59;4955373;28;20231;-77
2023/12/03 05:41:55;;;;;;;16.87;3.50;;;;;;;12.84;84.18;94574.13;4991290;28;20319;-76
2023/12/03 05:44:21;;;;;;;18.07;2.97;;;;;;;12.90;83.79;94591.59;4961327;28;20802;-76
2023/12/03 05:46:46;;;;;;;11.47;3.13;;;;;;;12.92;83.63;94581.69;4950324;28;20252;-77
2023/12/03 05:49:12;;;;;;;13.57;3.20;;;;;;;12.85;83.62;94589.66;4987677;28;20324;-77
2023/12/03 05:51:42;;;;;;;19.13;2.90;;;;;;;12.83;83.48;94594.31;4973006;28;20243;-77
2023/12/03 05:54:07;;;;;;;15.60;3.00;;;;;;;12.88;83.96;94590.22;4962571;28;20689;-77
2023/12/03 05:56:33;;;;;;;14.07;2.67;;;;;;;12.89;83.98;94599.72;4974612;28;20250;-77
2023/12/03 05:58:59;;;;;;;12.80;3.03;;;;;;;12.91;84.17;94603.72;4965870;28;20224;-77
2023/12/03 06:01:24;;;;;;;12.33;3.00;;;;;;;12.89;83.53;94595.28;4976485;28;20305;-77
2023/12/03 06:03:50;;;;;;;17.17;3.37;;;;;;;12.89;83.49;94599.72;4974661;28;20238;-77
2023/12/03 06:06:16;;;;;;;16.77;3.03;;;;;;;12.96;83.32;94598.63;4963995;28;20228;-76
2023/12/03 06:08:42;;;;;;;14.43;2.97;;;;;;;13.04;83.26;94608.81;4971668;28;20841;-76
2023/12/03 06:11:08;;;;;;;15.20;3.10;;;;;;;13.00;82.99;94614.72;4972515;28;20634;-76
2023/12/03 06:13:33;;;;;;;18.57;3.40;;;;;;;12.97;83.60;94612.56;4990401;28;20234;-76
2023/12/03 06:15:59;;;;;;;13.17;3.10;;;;;;;13.00;84.00;94619.97;4974936;28;20235;-76
2023/12/03 06:18:24;;;;;;;20.53;3.43;;;;;;;13.04;83.42;94621.94;4976105;28;20238;-76
2023/12/03 06:20:51;;;;;;;16.50;3.70;;;;;;;12.96;85.17;94632.78;4990461;28;20260;-75
2023/12/03 06:23:17;;;;;;;14.93;3.60;;;;;;;12.90;86.17;94623.13;4975777;28;20231;-76
2023/12/03 06:25:43;;;;;;;21.60;3.90;;;;;;;12.78;86.04;94635.41;4968195;28;20312;-76
2023/12/03 06:28:09;;;;;;;17.87;3.67;;;;;;;12.86;87.14;94637.72;4976236;28;20231;-77
2023/12/03 06:30:35;;;;;;;18.63;3.90;;;;;;;12.81;86.94;94637.59;4965944;28;20338;-77
2023/12/03 06:33:01;;;;;;;18.53;4.10;;;;;;;12.88;87.81;94646.19;4982616;28;20271;-76
2023/12/03 06:35:27;;;;;;;15.53;3.60;;;;;;;12.99;87.13;94650.69;4967683;28;20235;-76
2023/12/03 06:37:52;;;;;;;13.60;3.43;;;;;;;13.04;87.83;94645.59;4984113;28;20232;-76
2023/12/03 06:40:18;;;;;;;14.23;3.17;;;;;;;13.07;87.40;94644.38;4976124;28;20899;-76
2023/12/03 06:42:43;;;;;;;19.40;3.50;;;;;;;13.11;87.42;94648.19;4991806;28;20226;-77
2023/12/03 06:45:11;;;;;;;17.30;3.50;;;;;;;13.17;86.75;94650.72;4976061;28;20752;-77
2023/12/03 06:47:36;;;;;;;17.60;3.27;;;;;;;13.16;87.61;94661.47;4983063;28;20252;-77
2023/12/03 06:50:02;;;;;;;16.70;3.50;;;;;;;13.15;87.82;94667.72;4982869;28;20291;-77
2023/12/03 06:52:28;;;;;;;18.03;3.70;;;;;;;13.11;87.77;94674.47;4966079;28;20224;-77
2023/12/03 06:54:54;;;;;;;19.47;3.40;;;;;;;13.12;88.41;94674.22;4958353;28;20902;-76
2023/12/03 06:57:19;;;;;;;16.37;3.30;;;;;;;13.15;88.88;94681.69;4982951;28;20232;-77
2023/12/03 06:59:45;;;;;;;19.07;3.67;;;;;;;13.07;90.98;94681.16;4977169;28;20321;-77
2023/12/03 07:02:11;;;;;;;14.83;3.57;;;;;;;13.06;91.93;94679.56;4991555;28;20240;-77
2023/12/03 07:04:37;;;;;;;14.47;3.53;;;;;;;13.01;93.38;94677.56;4962376;28;20674;-76
2023/12/03 07:07:04;;;;;;;17.10;3.47;;;;;;;12.93;94.45;94682.31;4978291;28;20322;-79
2023/12/03 07:09:37;;;;;;;16.70;3.83;;;;;;;12.90;94.72;94688.78;4974712;28;20267;-77
2023/12/03 07:12:20;;;;;;;11.27;3.57;;;;;;;12.85;95.86;94709.66;4957066;28;20224;-78
2023/12/03 07:14:45;;;;;;;21.27;3.80;;;;;;;12.75;96.69;94712.00;4996232;28;20294;-78
2023/12/03 07:17:11;;;;;;;14.47;4.17;;;;;;;12.68;97.85;94716.53;4991472;28;20721;-76
2023/12/03 07:19:41;;;;;;;19.33;4.50;;;;;;;12.67;99.32;94702.59;4965726;28;20231;-77
2023/12/03 07:22:14;;;;;;;13.77;3.80;;;;;;;12.58;99.26;94713.59;4974518;28;20229;-76
2023/12/03 07:24:41;;;;;;;16.60;4.50;;;;;;;12.56;100.00;94715.63;4980832;28;20667;-77
2023/12/03 07:27:07;;;;;;;17.27;4.43;;;;;;;12.53;100.00;94722.13;4978170;28;20230;-77
2023/12/03 07:29:35;;;;;;;18.27;4.80;;;;;;;12.63;100.00;94716.38;4977128;28;20234;-78
2023/12/03 07:32:02;;;;;;;16.87;4.30;;;;;;;12.60;100.00;94716.78;4940929;28;20224;-78
2023/12/03 07:34:27;;;;;;;14.57;3.93;;;;;;;12.63;100.00;94726.88;4941334;28;20677;-78
2023/12/03 07:36:53;;;;;;;19.37;3.97;;;;;;;12.55;100.00;94724.50;4963769;28;20327;-79
2023/12/03 07:39:23;;;;;;;16.43;4.20;;;;;;;12.53;100.00;94732.63;4957413;28;20236;-77
2023/12/03 07:41:53;;;;;;;14.53;3.80;;;;;;;12.34;100.00;94748.53;4944102;28;20319;-78
2023/12/03 07:44:18;;;;;;;21.50;4.47;;;;;;;12.30;100.00;94748.13;4930468;28;20664;-78
2023/12/03 07:46:44;;;;;;;15.00;4.73;;;;;;;12.15;100.00;94740.59;4931171;28;20228;-77
2023/12/03 07:49:10;;;;;;;15.33;4.47;;;;;;;12.03;100.00;94751.97;4939672;28;20302;-78
2023/12/03 07:51:35;;;;;;;19.73;4.70;;;;;;;11.80;100.00;94767.44;4956556;28;20311;-78
2023/12/03 07:54:01;;;;;;;15.57;4.40;;;;;;;11.75;100.00;94778.56;4946120;28;20243;-78
2023/12/03 07:56:40;;;;;;;16.43;5.13;;;;;;;11.52;100.00;94775.63;4961749;28;20232;-77
2023/12/03 07:59:06;;;;;;;17.77;5.43;;;;;;;11.57;100.00;94790.72;4954342;28;20322;-77
2023/12/03 08:01:32;;;;;;;15.37;6.10;;;;;;;11.42;100.00;94788.38;4959696;28;20235;-77
2023/12/03 08:03:58;;;;;;;15.17;5.50;;;;;;;11.24;100.00;94798.72;4930821;28;20977;-78
2023/12/03 08:06:24;;;;;;;15.43;5.60;;;;;;;11.36;100.00;94804.94;4962323;28;20318;-78
2023/12/03 08:08:51;;;;;;;15.27;6.30;;;;;;;11.16;100.00;94809.41;4939132;28;20292;-77
2023/12/03 08:11:19;;;;;;;18.20;6.27;;;;;;;11.23;100.00;94811.00;4944791;28;20239;-79
2023/12/03 08:13:45;;;;;;;15.23;6.80;;;;;;;11.06;100.00;94825.56;4932056;28;20228;-77
2023/12/03 08:16:11;;;;;;;17.83;6.20;;;;;;;10.60;100.00;94836.06;4935811;28;20915;-78
2023/12/03 08:18:37;;;;;;;13.97;6.73;;;;;;;10.48;100.00;94842.94;4947120;28;20221;-77
2023/12/03 08:21:03;;;;;;;15.13;6.90;;;;;;;10.53;100.00;94853.56;4955385;28;20694;-78
2023/12/03 08:23:30;;;;;;;15.57;7.17;;;;;;;10.43;100.00;94847.94;4956872;28;20274;-77
2023/12/03 08:25:56;;;;;;;13.77;7.53;;;;;;;10.28;100.00;94857.78;4944406;28;20300;-76
2023/12/03 08:28:22;;;;;;;12.87;7.33;;;;;;;10.12;100.00;94858.16;4959165;28;20602;-75
2023/12/03 08:30:48;;;;;;;15.23;7.73;;;;;;;9.87;100.00;94862.28;4946475;28;20281;-76
2023/12/03 08:33:14;;;;;;;15.60;7.53;;;;;;;9.80;100.00;94871.91;4955477;28;20236;-76
2023/12/03 08:35:41;;;;;;;15.83;7.33;;;;;;;9.52;100.00;94863.34;4941171;28;20232;-77
2023/12/03 08:38:07;;;;;;;15.93;7.57;;;;;;;9.45;100.00;94869.34;4943329;28;20348;-74
2023/12/03 08:40:33;;;;;;;16.10;8.57;;;;;;;9.62;100.00;94859.38;4937325;28;20323;-76
2023/12/03 08:42:59;;;;;;;15.17;7.93;;;;;;;9.57;100.00;94864.38;4955946;28;20225;-76
2023/12/03 08:45:25;;;;;;;14.27;8.40;;;;;;;9.48;100.00;94861.13;4965603;28;20301;-77
2023/12/03 08:47:53;;;;;;;16.10;8.60;;;;;;;9.38;100.00;94865.91;4941084;28;20246;-77
2023/12/03 08:50:19;;;;;;;19.47;8.97;;;;;;;9.51;100.00;94878.22;4980785;28;20331;-79
2023/12/03 08:52:45;;;;;;;17.87;9.13;;;;;;;9.32;100.00;94869.28;4980091;28;20223;-75
2023/12/03 08:55:13;;;;;;;19.37;8.77;;;;;;;9.10;100.00;94882.63;4980314;28;20629;-76
2023/12/03 08:57:39;;;;;;;15.83;8.43;;;;;;;9.13;100.00;94874.38;4990733;28;20322;-74
2023/12/03 09:00:08;;;;;;;16.03;8.90;;;;;;;9.16;100.00;94864.38;4992107;28;20293;-75
2023/12/03 09:02:34;;;;;;;17.00;8.93;;;;;;;9.05;100.00;94867.50;4960472;28;20231;-78
2023/12/03 09:05:00;;;;;;;13.97;8.23;;;;;;;9.08;100.00;94869.72;4970337;28;20474;-75
2023/12/03 09:07:30;;;;;;;17.07;8.93;;;;;;;8.95;100.00;94867.06;4962332;28;20244;-76
2023/12/03 09:10:06;;;;;;;16.93;9.03;;;;;;;9.01;100.00;94881.94;4980736;28;20242;-76
2023/12/03 09:12:32;;;;;;;17.00;8.40;;;;;;;8.99;100.00;94881.31;4956648;28;20735;-75
2023/12/03 09:14:58;;;;;;;15.33;9.00;;;;;;;8.97;100.00;94869.47;4972207;28;20239;-76
2023/12/03 09:17:26;;;;;;;15.87;8.93;;;;;;;8.81;100.00;94876.56;4976472;28;20236;-76
2023/12/03 09:19:52;;;;;;;18.30;9.87;;;;;;;8.88;100.00;94896.72;4962721;28;20240;-74
2023/12/03 09:22:18;;;;;;;17.83;9.17;;;;;;;8.77;100.00;94906.66;4971039;28;20360;-76
2023/12/03 09:24:44;;;;;;;17.17;9.57;;;;;;;8.67;100.00;94913.19;4970163;28;20228;-76
2023/12/03 09:27:10;;;;;;;16.27;9.40;;;;;;;8.73;100.00;94905.44;4955877;28;20270;-76
2023/12/03 09:29:37;;;;;;;19.60;9.67;;;;;;;8.65;100.00;94917.78;4977820;28;20235;-76
2023/12/03 09:32:05;;;;;;;15.33;9.47;;;;;;;8.60;100.00;94920.13;4969626;28;20363;-76
2023/12/03 09:34:31;;;;;;;15.07;9.60;;;;;;;8.73;100.00;94925.50;4972035;28;20231;-76
2023/12/03 09:36:57;;;;;;;18.20;9.77;;;;;;;8.58;100.00;94916.91;4969487;28;20223;-73
2023/12/03 09:39:24;;;;;;;17.20;10.03;;;;;;;8.55;100.00;94922.53;4962006;28;20744;-75
2023/12/03 09:41:51;;;;;;;18.70;10.20;;;;;;;8.64;100.00;94926.63;4960509;28;20223;-76
2023/12/03 09:44:40;;;;;;;20.30;10.57;;;;;;;8.49;100.00;94915.44;4975960;28;20246;-77
2023/12/03 09:47:07;;;;;;;23.00;10.20;;;;;;;8.41;100.00;94924.19;4958718;28;20784;-75
2023/12/03 09:49:33;;;;;;;18.53;10.00;;;;;;;8.44;100.00;94913.38;4971919;28;20971;-77
2023/12/03 09:52:02;;;;;;;18.80;10.13;;;;;;;8.44;100.00;94920.41;4990219;28;20227;-77
2023/12/03 09:54:29;;;;;;;18.73;10.03;;;;;;;8.42;100.00;94946.69;4989928;28;20846;-76
2023/12/03 09:56:56;;;;;;;18.23;10.00;;;;;;;8.30;100.00;94931.69;4943095;28;20637;-76
2023/12/03 09:59:22;;;;;;;24.53;10.57;;;;;;;8.24;100.00;94929.81;4973820;28;20295;-76
2023/12/03 10:01:48;;;;;;;20.10;10.87;;;;;;;8.39;100.00;94936.59;4987985;28;20258;-76
2023/12/03 10:04:15;;;;;;;18.73;10.53;;;;;;;8.29;100.00;94938.69;4954154;28;20227;-77
2023/12/03 10:06:45;;;;;;;19.97;10.37;;;;;;;8.10;100.00;94960.13;4972987;28;20239;-77
2023/12/03 10:09:14;;;;;;;19.90;10.50;;;;;;;8.02;100.00;94968.84;4971062;28;20232;-75
2023/12/03 10:11:41;;;;;;;19.97;10.03;;;;;;;7.96;100.00;94960.97;4972584;28;20222;-76
2023/12/03 10:14:08;;;;;;;17.40;9.60;;;;;;;7.81;100.00;94971.41;4973243;28;20761;-75
2023/12/03 10:16:35;;;;;;;17.80;9.77;;;;;;;7.65;100.00;94978.59;4976028;28;20231;-77
2023/12/03 10:19:01;;;;;;;18.00;9.97;;;;;;;7.75;100.00;94979.94;4969854;28;20247;-75
2023/12/03 10:21:27;;;;;;;17.70;10.33;;;;;;;7.73;100.00;94976.72;4986615;28;20236;-75
2023/12/03 10:24:04;;;;;;;18.43;10.13;;;;;;;7.49;100.00;94997.81;4977361;28;20231;-74
2023/12/03 10:26:30;;;;;;;18.93;10.00;;;;;;;7.39;100.00;94994.66;4958769;28;20314;-75
2023/12/03 10:28:57;;;;;;;20.50;10.20;;;;;;;7.50;100.00;95002.03;4973800;28;20322;-74
2023/12/03 10:31:25;;;;;;;19.27;10.97;;;;;;;7.61;100.00;95004.19;4977770;28;20315;-74
2023/12/03 10:33:50;;;;;;;18.07;10.20;;;;;;;7.57;100.00;95002.13;4962315;28;20227;-75
2023/12/03 10:36:18;;;;;;;19.33;10.10;;;;;;;7.70;100.00;94990.09;4967486;28;20322;-75
2023/12/03 10:38:44;;;;;;;20.90;10.40;;;;;;;7.66;100.00;94993.25;4955690;28;20254;-75
2023/12/03 10:41:15;;;;;;;20.07;9.83;;;;;;;7.31;100.00;94982.53;4959432;28;20295;-74
2023/12/03 10:43:42;;;;;;;18.43;10.40;;;;;;;7.37;100.00;94983.63;4957287;28;20227;-75
2023/12/03 10:46:11;;;;;;;19.00;10.13;;;;;;;7.39;100.00;94995.47;4973546;28;20251;-75
2023/12/03 10:48:38;;;;;;;18.33;8.97;;;;;;;7.33;100.00;94990.19;4975557;28;20245;-75
2023/12/03 10:51:08;;;;;;;18.43;9.33;;;;;;;7.34;100.00;95002.19;4976547;28;20652;-76
2023/12/03 10:53:34;;;;;;;17.97;9.27;;;;;;;7.12;100.00;94992.63;4971836;28;20258;-75
2023/12/03 10:56:04;;;;;;;17.13;9.27;;;;;;;7.04;100.00;95011.75;4958136;28;20290;-75
2023/12/03 10:58:36;;;;;;;19.97;10.20;;;;;;;6.98;100.00;94999.41;4970668;28;20232;-76
2023/12/03 11:01:06;;;;;;;22.57;10.43;;;;;;;7.10;100.00;94992.00;4992059;28;20236;-75
2023/12/03 11:04:14;;;;;;;20.43;10.20;;;;;;;7.05;100.00;95004.72;4973191;28;20235;-75
2023/12/03 11:06:40;;;;;;;18.60;10.07;;;;;;;6.92;100.00;95007.13;4952717;28;20243;-76
2023/12/03 11:09:07;;;;;;;18.80;10.70;;;;;;;7.08;100.00;95010.41;4959460;28;20658;-76
2023/12/03 11:11:33;;;;;;;17.10;8.93;;;;;;;6.79;100.00;95010.31;4958400;28;20236;-75
2023/12/03 11:13:59;;;;;;;19.77;9.43;;;;;;;6.86;100.00;95000.81;4978168;28;20306;-76
2023/12/03 11:16:29;;;;;;;17.27;8.93;;;;;;;6.76;100.00;94995.84;4980783;28;20220;-74
2023/12/03 11:19:06;;;;;;;17.43;9.87;;;;;;;6.94;100.00;95000.78;4977303;28;20236;-76
2023/12/03 11:21:36;;;;;;;15.40;8.67;;;;;;;6.82;100.00;95009.16;4982131;28;20616;-74